Silver Ridge Township, Maine
Current Conditions -  °F | °C
As of 3:53 PM on Friday 21 Nov 2014 (Local Time) from KMLT Reporting Station
Broken Clouds Broken Clouds  
Wind Chill: -11°   Ceiling: 3800
Heat Index: -4°   Visibility: 10mi
Dew Point: -13°   Wind: 14mph
Humidity: 51%   Direction: 290°WNW
Pressure: 30.05"   Gusts: 26mph
Location:  45.8047°N, 68.2984°W
Report Text: KMLT 212053Z AUTO 29012G23KT 260V330 10SM BKN038 BKN046 M04/M13 A3005 RMK AO2 PK WND 30028/2026 SLP187 T10441133 53038
Loading
Personal Weather Stations






























Interactive Weather Map New forecast layout! Learn more

10-Day Weather Forecast

Advertisements
Track Severe Weather on mobile